Time;durP1;ratioP1;P1;durP2;ratioP2;P2;SDS_P1;SDS_P2;PMS_P1;PMS_P2;Temp;Humidity;BMP_temperature;BMP_pressure;BME280_temperature;BME280_humidity;BME280_pressure;Samples;Min_cycle;Max_cycle;Signal;HPM_P1;HPM_P2
2021/08/06 00:02:21;;;;;;;;;;;;;;;;;;;;;
2021/08/06 00:05:18;;;;;;;7.40;4.80;;;;;;;18.42;73.83;100210.13;4904126;29;20036;-88
2021/08/06 00:08:36;;;;;;;;;;;;;;;;;;;;;
2021/08/06 00:12:13;;;;;;;6.93;4.97;;;;;;;18.52;72.83;100199.19;4937853;28;20046;-81
2021/08/06 00:15:41;;;;;;;;;;;;;;;;;;;;;
2021/08/06 00:32:56;;;;;;;5.57;3.30;;;;;;;18.50;73.94;100209.03;5036406;28;20060;-90
2021/08/06 00:35:44;;;;;;;5.65;2.95;;;;;;;18.33;75.94;100198.78;5043770;28;20448;-87
2021/08/06 00:38:29;;;;;;;5.10;3.22;;;;;;;18.13;77.45;100207.28;5059168;28;20071;-82
2021/08/06 00:40:55;;;;;;;6.78;3.67;;;;;;;17.95;77.63;100197.97;5058788;28;20072;-77
2021/08/06 00:43:21;;;;;;;6.10;3.30;;;;;;;17.80;80.35;100198.31;5057502;28;20032;-82
2021/08/06 00:46:06;;;;;;;3.38;2.90;;;;;;;17.60;81.79;100201.44;5038614;28;20052;-84
2021/08/06 00:48:35;;;;;;;5.15;3.65;;;;;;;17.43;82.33;100194.72;5037787;28;20026;-84
2021/08/06 00:51:20;;;;;;;4.95;3.28;;;;;;;17.35;81.91;100196.69;5038227;28;20116;-90
2021/08/06 00:53:46;;;;;;;4.95;3.20;;;;;;;17.24;83.13;100196.00;5037631;28;20021;-84
2021/08/06 00:56:12;;;;;;;8.85;3.40;;;;;;;17.21;83.66;100196.94;5043684;28;20104;-87
2021/08/06 00:58:39;;;;;;;3.60;3.30;;;;;;;17.21;82.45;100188.09;5058738;28;20457;-87
2021/08/06 01:01:04;;;;;;;3.50;2.78;;;;;;;17.24;82.36;100188.03;5058313;28;20033;-82
2021/08/06 01:03:54;;;;;;;8.13;2.97;;;;;;;17.23;83.57;100196.91;5057951;28;20150;-84
2021/08/06 01:06:42;;;;;;;3.90;3.47;;;;;;;17.18;83.80;100197.88;5059094;28;20422;-78
2021/08/06 01:09:44;;;;;;;3.83;3.13;;;;;;;17.17;84.33;100198.81;5058877;28;20064;-86
2021/08/06 01:12:30;;;;;;;7.47;3.70;;;;;;;17.06;86.25;100200.81;5059271;28;20028;-84
2021/08/06 01:15:01;;;;;;;6.30;3.40;;;;;;;17.02;85.77;100204.44;5041257;28;20049;-79
2021/08/06 01:17:49;;;;;;;6.50;4.13;;;;;;;16.91;87.95;100203.78;5058453;28;20175;-83
2021/08/06 01:20:21;;;;;;;10.55;4.40;;;;;;;16.79;89.71;100204.84;5058102;28;20106;-89
2021/08/06 01:22:52;;;;;;;5.85;4.57;;;;;;;16.69;90.72;100196.19;5058562;28;20166;-87
2021/08/06 01:25:47;;;;;;;7.03;4.43;;;;;;;16.65;91.00;100194.50;5058125;28;20024;-80
2021/08/06 01:28:19;;;;;;;6.78;4.40;;;;;;;16.57;91.66;100185.81;5057125;28;20055;-84
2021/08/06 01:31:05;;;;;;;4.78;4.10;;;;;;;16.52;91.75;100184.13;5056297;28;20025;-82
2021/08/06 01:33:31;;;;;;;8.68;4.45;;;;;;;16.48;92.21;100187.72;5056476;28;20029;-78
2021/08/06 01:35:57;;;;;;;8.13;4.13;;;;;;;16.47;92.69;100180.66;5056902;28;20397;-81
2021/08/06 01:38:22;;;;;;;7.28;4.43;;;;;;;16.43;92.91;100178.97;5059109;28;20029;-78
2021/08/06 01:41:24;;;;;;;7.03;4.43;;;;;;;16.45;92.93;100177.13;5065623;28;20055;-84
2021/08/06 01:44:16;;;;;;;7.82;4.93;;;;;;;16.43;93.19;100168.34;5056827;28;20024;-84
2021/08/06 01:46:50;;;;;;;8.88;4.53;;;;;;;16.43;93.32;100164.81;5037299;28;20049;-79
2021/08/06 01:49:23;;;;;;;;;;;;;;;16.42;93.24;100161.28;5037148;28;20031;-78
2021/08/06 01:52:13;;;;;;;6.97;4.72;;;;;;;16.40;93.65;100163.09;5034846;28;19916;-85
2021/08/06 01:54:39;;;;;;;6.57;5.03;;;;;;;16.39;93.71;100161.34;5041996;28;20057;-86
2021/08/06 01:57:26;;;;;;;8.30;5.03;;;;;;;16.38;93.30;100151.63;5056216;28;20053;-81
2021/08/06 01:59:54;;;;;;;8.23;4.72;;;;;;;16.37;93.48;100152.50;5056179;28;20037;-81
2021/08/06 02:02:20;;;;;;;8.23;5.55;;;;;;;16.36;93.61;100150.78;5055472;28;20033;-81
2021/08/06 02:05:05;;;;;;;5.63;4.40;;;;;;;16.41;93.29;100154.22;5056482;28;20444;-79
2021/08/06 02:07:31;;;;;;;9.43;5.25;;;;;;;16.40;93.62;100149.81;5056325;28;20036;-80
2021/08/06 02:10:16;;;;;;;8.27;5.15;;;;;;;16.43;93.72;100147.09;5056374;28;20021;-80
2021/08/06 02:13:02;;;;;;;6.28;4.55;;;;;;;16.46;93.61;100147.03;5055414;28;20024;-77
2021/08/06 02:15:28;;;;;;;7.32;5.18;;;;;;;16.46;93.56;100147.03;5055242;28;20380;-83
2021/08/06 02:17:55;;;;;;;6.90;5.03;;;;;;;16.49;92.88;100135.47;5055216;28;20029;-80
2021/08/06 02:20:24;;;;;;;8.98;5.63;;;;;;;16.50;93.27;100135.44;5054402;28;20102;-82
2021/08/06 02:22:53;;;;;;;6.70;4.38;;;;;;;16.54;93.05;100132.75;5055525;28;20037;-80
2021/08/06 02:25:21;;;;;;;5.55;3.92;;;;;;;16.58;92.20;100134.44;5055819;28;20083;-84
2021/08/06 02:27:48;;;;;;;7.13;4.30;;;;;;;16.58;92.29;100132.66;5055440;28;20025;-88
2021/08/06 02:30:33;;;;;;;10.05;4.10;;;;;;;16.61;92.21;100137.03;5055821;28;20033;-82
2021/08/06 02:32:59;;;;;;;5.47;4.50;;;;;;;16.60;92.34;100135.28;5053829;28;20480;-83
2021/08/06 02:35:24;;;;;;;5.82;4.15;;;;;;;16.61;92.08;100135.25;5055398;28;20057;-83
2021/08/06 02:37:50;;;;;;;5.93;3.80;;;;;;;16.61;92.06;100139.69;5054945;28;20025;-85
2021/08/06 02:40:16;;;;;;;8.93;4.85;;;;;;;16.61;92.62;100134.38;5054012;28;20124;-81
2021/08/06 02:43:05;;;;;;;6.45;4.43;;;;;;;16.63;92.38;100137.84;5054701;28;20047;-84
2021/08/06 02:45:30;;;;;;;6.72;4.10;;;;;;;16.63;91.89;100135.19;5054072;28;20037;-82
2021/08/06 02:47:58;;;;;;;5.63;4.10;;;;;;;16.63;92.05;100133.44;5055312;28;20437;-83
2021/08/06 02:50:23;;;;;;;5.07;3.80;;;;;;;16.63;92.24;100137.84;5054848;28;20479;-81
2021/08/06 02:52:49;;;;;;;6.50;4.68;;;;;;;16.59;92.17;100138.81;5055384;28;20025;-81
2021/08/06 02:55:34;;;;;;;7.13;4.40;;;;;;;16.56;92.34;100136.25;5054805;28;20050;-83
2021/08/06 02:57:59;;;;;;;5.63;3.60;;;;;;;16.55;92.34;100135.38;5054215;28;20032;-78
2021/08/06 03:00:25;;;;;;;6.82;4.55;;;;;;;16.53;92.52;100131.84;5055134;28;20368;-81
2021/08/06 03:02:50;;;;;;;7.07;4.07;;;;;;;16.52;92.60;100125.69;5054687;28;20096;-81
2021/08/06 03:05:16;;;;;;;9.70;4.30;;;;;;;16.57;92.79;100133.53;5054136;28;20139;-81
2021/08/06 03:07:48;;;;;;;4.85;4.35;;;;;;;16.56;92.90;100133.59;5054767;28;20017;-82
2021/08/06 03:10:14;;;;;;;8.60;4.40;;;;;;;16.59;92.97;100136.16;5055014;28;20050;-83
2021/08/06 03:12:39;;;;;;;10.10;4.15;;;;;;;16.60;92.70;100132.63;5055012;28;20025;-79
2021/08/06 03:15:05;;;;;;;7.45;4.25;;;;;;;16.60;92.70;100132.63;5054141;28;20108;-84
2021/08/06 03:17:31;;;;;;;5.13;3.90;;;;;;;16.64;92.74;100131.66;5056654;28;20476;-82
2021/08/06 03:19:56;;;;;;;4.22;3.83;;;;;;;16.63;92.88;100128.13;5059177;28;20028;-80
2021/08/06 03:22:21;;;;;;;4.85;3.35;;;;;;;16.65;92.88;100130.75;5058544;28;20051;-82
2021/08/06 03:24:47;;;;;;;5.40;3.13;;;;;;;16.68;92.63;100125.38;5058204;28;20017;-83
2021/08/06 03:27:12;;;;;;;5.57;3.58;;;;;;;16.69;92.97;100128.00;5058697;28;20139;-80
2021/08/06 03:29:38;;;;;;;4.82;3.55;;;;;;;16.74;92.81;100129.69;5058437;28;20085;-78
2021/08/06 03:32:23;;;;;;;13.35;3.83;;;;;;;16.76;92.82;100131.41;5058083;28;20447;-80
2021/08/06 03:34:49;;;;;;;4.82;3.58;;;;;;;16.76;92.87;100130.53;5058769;28;20110;-83
2021/08/06 03:37:17;;;;;;;5.30;3.90;;;;;;;16.76;93.44;100123.44;5057995;28;20467;-81
2021/08/06 03:39:42;;;;;;;4.50;3.70;;;;;;;16.76;94.04;100134.06;5057852;28;20055;-84
2021/08/06 03:42:08;;;;;;;6.05;3.92;;;;;;;16.77;93.84;100129.63;5058584;28;20100;-84
2021/08/06 03:44:56;;;;;;;6.10;3.90;;;;;;;16.79;93.46;100123.38;5058970;28;20383;-80
2021/08/06 03:47:21;;;;;;;5.97;4.50;;;;;;;16.80;93.54;100122.44;5059200;28;20049;-82
2021/08/06 03:49:47;;;;;;;4.95;4.45;;;;;;;16.79;93.03;100123.38;5057944;28;20028;-80
2021/08/06 03:52:12;;;;;;;5.00;4.47;;;;;;;16.79;93.34;100119.84;5057747;28;20108;-77
2021/08/06 03:54:40;;;;;;;5.78;4.80;;;;;;;16.79;93.56;100123.38;5057154;28;20025;-77
2021/08/06 03:57:06;;;;;;;5.55;4.22;;;;;;;16.80;93.41;100125.09;5058514;28;20025;-81
2021/08/06 03:59:31;;;;;;;7.25;4.85;;;;;;;16.82;92.89;100131.28;5057514;28;20044;-83
2021/08/06 04:01:57;;;;;;;7.97;5.13;;;;;;;16.79;93.47;100130.47;5057510;28;20207;-79
2021/08/06 04:04:42;;;;;;;8.35;5.50;;;;;;;16.76;93.88;100123.44;5057474;28;20052;-79
2021/08/06 04:07:07;;;;;;;5.78;5.28;;;;;;;16.75;93.59;100131.44;5057675;28;20025;-79
2021/08/06 04:09:33;;;;;;;7.85;5.93;;;;;;;16.73;93.49;100134.13;5058080;28;20383;-78
2021/08/06 04:11:58;;;;;;;9.50;6.40;;;;;;;16.72;94.10;100127.06;5057336;28;20029;-83
2021/08/06 04:14:23;;;;;;;8.05;6.22;;;;;;;16.69;94.21;100135.09;5058098;28;20081;-81
2021/08/06 04:16:49;;;;;;;8.20;6.40;;;;;;;16.67;93.95;100135.13;5056156;28;20025;-82
2021/08/06 04:19:34;;;;;;;8.00;6.55;;;;;;;16.67;94.35;100132.47;5057610;28;20017;-79
2021/08/06 04:22:00;;;;;;;11.40;6.35;;;;;;;16.67;94.10;100139.53;5057581;28;20035;-79
2021/08/06 04:24:45;;;;;;;8.05;6.43;;;;;;;16.69;94.28;100137.75;5056713;28;20093;-80
2021/08/06 04:27:10;;;;;;;7.68;6.68;;;;;;;16.66;94.70;100136.03;5057703;28;20071;-81
2021/08/06 04:29:36;;;;;;;7.93;6.80;;;;;;;16.68;94.50;100143.97;5056717;28;20029;-83
2021/08/06 04:32:02;;;;;;;7.70;6.47;;;;;;;16.70;94.18;100139.50;5057724;28;20021;-82
2021/08/06 04:34:27;;;;;;;10.05;6.47;;;;;;;16.71;94.30;100141.25;5057268;28;20151;-77
2021/08/06 04:36:55;;;;;;;6.50;5.82;;;;;;;16.71;94.64;100141.25;5056748;28;20098;-80
2021/08/06 04:39:21;;;;;;;10.57;7.07;;;;;;;16.72;94.68;100143.00;5064281;28;20045;-80
2021/08/06 04:41:49;;;;;;;8.90;7.15;;;;;;;16.69;94.31;100140.41;5061155;28;20037;-79
2021/08/06 04:44:18;;;;;;;10.82;6.50;;;;;;;16.73;94.19;100141.22;5056909;28;20056;-80
2021/08/06 04:46:44;;;;;;;13.52;6.68;;;;;;;16.73;94.32;100139.44;5056405;28;20127;-78
2021/08/06 04:49:10;;;;;;;10.80;7.03;;;;;;;16.69;93.85;100132.44;5057229;28;20025;-83
2021/08/06 04:51:36;;;;;;;9.50;6.45;;;;;;;16.69;94.32;100141.28;5055945;28;20032;-78
2021/08/06 04:54:01;;;;;;;8.48;6.75;;;;;;;16.67;94.35;100134.22;5056311;28;20025;-80
2021/08/06 04:56:27;;;;;;;10.32;7.20;;;;;;;16.68;94.32;100141.31;5056902;28;20032;-80
2021/08/06 04:58:52;;;;;;;14.90;7.25;;;;;;;16.68;94.72;100151.94;5057139;28;20115;-81
2021/08/06 05:01:18;;;;;;;12.43;7.68;;;;;;;16.68;94.70;100147.50;5056692;28;20037;-82
2021/08/06 05:03:43;;;;;;;12.13;7.32;;;;;;;16.70;94.71;100144.81;5056085;28;20380;-81
2021/08/06 05:06:08;;;;;;;11.50;7.75;;;;;;;16.72;94.74;100147.44;5056631;28;20021;-86
2021/08/06 05:08:34;;;;;;;12.13;7.80;;;;;;;16.72;94.60;100145.66;5057222;28;20131;-81
2021/08/06 05:10:59;;;;;;;14.85;7.53;;;;;;;16.75;94.52;100145.56;5056567;28;20025;-82
2021/08/06 05:13:26;;;;;;;14.02;7.78;;;;;;;16.76;94.37;100150.00;5055693;28;20098;-77
2021/08/06 05:15:52;;;;;;;12.93;7.40;;;;;;;16.79;94.83;100149.97;5054446;28;20033;-81
2021/08/06 05:18:18;;;;;;;14.07;7.68;;;;;;;16.78;93.51;100137.56;5056824;28;20025;-84
2021/08/06 05:20:45;;;;;;;10.13;7.30;;;;;;;16.81;93.64;100137.50;5056210;28;20029;-81
2021/08/06 05:23:10;;;;;;;12.13;6.30;;;;;;;16.83;93.24;100137.47;5056724;28;20025;-80
2021/08/06 05:25:36;;;;;;;10.23;7.18;;;;;;;16.83;93.01;100146.31;5056666;28;20545;-81
2021/08/06 05:28:02;;;;;;;8.32;6.82;;;;;;;16.82;92.59;100139.25;5055963;28;20017;-86
2021/08/06 05:30:28;;;;;;;12.13;6.93;;;;;;;16.81;92.53;100141.94;5056435;28;20040;-79
2021/08/06 05:32:53;;;;;;;9.32;6.68;;;;;;;16.85;92.58;100143.63;5055679;28;20048;-78
2021/08/06 05:35:19;;;;;;;9.07;6.32;;;;;;;16.88;91.66;100148.88;5055889;28;20014;-79
2021/08/06 05:37:45;;;;;;;11.23;6.03;;;;;;;16.99;91.58;100148.69;5055089;28;20117;-82
2021/08/06 05:40:11;;;;;;;9.32;5.82;;;;;;;17.04;91.81;100149.47;5055150;28;20056;-77
2021/08/06 05:42:36;;;;;;;7.57;5.85;;;;;;;17.08;92.02;100156.47;5055515;28;20029;-77
2021/08/06 05:45:05;;;;;;;8.73;6.88;;;;;;;17.11;92.40;100159.06;5055768;28;20434;-83
2021/08/06 05:47:42;;;;;;;7.95;5.53;;;;;;;17.18;90.81;100155.34;5055581;28;20043;-83
2021/08/06 05:50:08;;;;;;;8.70;5.82;;;;;;;17.21;90.96;100153.53;5055124;28;20111;-80
2021/08/06 05:52:34;;;;;;;7.32;5.05;;;;;;;17.25;91.53;100152.56;5055170;28;20029;-82
2021/08/06 05:54:59;;;;;;;8.48;5.07;;;;;;;17.30;91.30;100150.69;5054443;28;20110;-79
2021/08/06 05:57:25;;;;;;;9.85;4.70;;;;;;;17.37;89.53;100152.28;5061608;28;20017;-81
2021/08/06 05:59:50;;;;;;;7.80;4.38;;;;;;;17.37;89.34;100149.63;5053962;28;20112;-77
2021/08/06 06:02:15;;;;;;;7.47;4.95;;;;;;;17.34;88.77;100149.72;5054607;28;20021;-84
2021/08/06 06:04:52;;;;;;;11.93;5.43;;;;;;;17.40;88.60;100141.56;5054973;28;20032;-80
2021/08/06 06:07:18;;;;;;;8.77;4.97;;;;;;;17.44;88.88;100147.69;5055032;28;20545;-81
2021/08/06 06:09:43;;;;;;;12.20;5.78;;;;;;;17.45;88.91;100149.47;5054550;28;20025;-82
2021/08/06 06:12:09;;;;;;;8.05;4.95;;;;;;;17.60;87.96;100151.75;5054806;28;20029;-85
2021/08/06 06:14:34;;;;;;;7.28;4.97;;;;;;;17.66;87.14;100154.28;5055169;28;20031;-79
2021/08/06 06:17:19;;;;;;;13.45;4.82;;;;;;;17.71;87.06;100159.47;5054135;28;20376;-81
2021/08/06 06:19:46;;;;;;;6.57;5.50;;;;;;;17.76;88.21;100164.72;5054465;28;20489;-82
2021/08/06 06:22:12;;;;;;;10.75;6.07;;;;;;;17.66;86.76;100164.91;5053976;28;20029;-80
2021/08/06 06:24:37;;;;;;;12.05;4.93;;;;;;;17.59;85.65;100167.75;5054922;28;20430;-80
2021/08/06 06:27:03;;;;;;;10.38;4.80;;;;;;;17.59;85.57;100163.28;5055369;28;20028;-77
2021/08/06 06:29:28;;;;;;;9.73;5.07;;;;;;;17.56;86.95;100173.16;5040046;28;20029;-79
2021/08/06 06:31:54;;;;;;;10.30;4.72;;;;;;;17.60;86.24;100169.50;5053017;28;20112;-78
2021/08/06 06:34:20;;;;;;;9.43;5.35;;;;;;;17.61;85.86;100165.94;5053754;28;20044;-82
2021/08/06 06:36:45;;;;;;;6.70;4.50;;;;;;;17.67;85.47;100166.66;5052657;28;20075;-79
2021/08/06 06:39:10;;;;;;;17.15;4.75;;;;;;;17.87;86.21;100175.97;5053514;28;20397;-82
2021/08/06 06:41:36;;;;;;;11.20;4.50;;;;;;;18.44;83.33;100174.53;5051787;28;20064;-81
2021/08/06 06:44:01;;;;;;;8.05;3.70;;;;;;;18.60;80.36;100158.13;5051160;28;20033;-79
2021/08/06 06:46:27;;;;;;;9.75;3.90;;;;;;;18.58;80.23;100162.63;5050763;28;20476;-84
2021/08/06 06:48:52;;;;;;;8.50;4.32;;;;;;;18.61;80.13;100168.75;5049649;28;20056;-79
2021/08/06 06:51:19;;;;;;;8.52;4.03;;;;;;;18.65;78.97;100169.53;5052159;28;20027;-83
2021/08/06 06:53:47;;;;;;;7.60;4.03;;;;;;;18.96;77.66;100166.91;5053359;28;20112;-78
2021/08/06 06:56:13;;;;;;;8.70;4.30;;;;;;;19.17;77.65;100165.41;5052928;28;20113;-76
2021/08/06 06:58:39;;;;;;;12.73;4.70;;;;;;;19.47;76.78;100162.72;5044484;28;20120;-80
2021/08/06 07:01:05;;;;;;;10.80;4.30;;;;;;;19.55;75.82;100166.00;5049236;28;20021;-77
2021/08/06 07:03:50;;;;;;;8.35;4.90;;;;;;;19.26;76.93;100174.03;5044964;28;20108;-84
2021/08/06 07:06:19;;;;;;;10.15;4.72;;;;;;;18.83;77.65;100171.69;5042799;28;20502;-81
2021/08/06 07:08:44;;;;;;;12.93;4.82;;;;;;;19.08;78.58;100175.47;5052894;28;20025;-82
2021/08/06 07:11:10;;;;;;;9.65;4.28;;;;;;;19.30;76.01;100175.69;5047327;28;21126;-81
2021/08/06 07:13:35;;;;;;;9.60;4.15;;;;;;;19.21;76.01;100183.06;5051910;28;20028;-82
2021/08/06 07:16:01;;;;;;;8.45;4.15;;;;;;;19.05;76.20;100181.78;5055272;28;20525;-79
2021/08/06 07:18:27;;;;;;;14.65;4.32;;;;;;;19.23;77.43;100184.81;5053107;28;20503;-78
2021/08/06 07:20:53;;;;;;;10.90;4.05;;;;;;;19.26;75.57;100176.72;5052614;28;20064;-80
2021/08/06 07:23:18;;;;;;;11.23;4.50;;;;;;;19.13;76.52;100177.09;5052052;28;20155;-78
2021/08/06 07:26:03;;;;;;;11.18;3.85;;;;;;;18.78;77.97;100173.59;5051834;28;20059;-86
2021/08/06 07:28:29;;;;;;;8.07;4.50;;;;;;;18.58;79.55;100189.28;5051018;28;20021;-80
2021/08/06 07:30:55;;;;;;;9.82;3.92;;;;;;;18.44;79.15;100177.19;5052301;28;20493;-84
2021/08/06 07:33:20;;;;;;;11.18;3.65;;;;;;;18.49;79.59;100183.28;5053967;28;20028;-85
2021/08/06 07:35:45;;;;;;;9.73;4.07;;;;;;;18.52;79.13;100185.84;5051776;28;20055;-81
2021/08/06 07:38:11;;;;;;;7.95;3.83;;;;;;;18.69;79.17;100182.75;5052025;28;20040;-78
2021/08/06 07:40:36;;;;;;;7.85;3.55;;;;;;;18.61;79.53;100186.53;5056470;28;20391;-78
2021/08/06 07:43:02;;;;;;;10.27;3.92;;;;;;;18.64;77.73;100175.81;5053057;28;20059;-76
2021/08/06 07:45:27;;;;;;;9.32;4.15;;;;;;;18.60;77.63;100180.34;5054270;28;20410;-82
2021/08/06 07:47:53;;;;;;;5.88;3.65;;;;;;;18.62;77.52;100182.94;5051828;28;20104;-79
2021/08/06 07:50:21;;;;;;;9.93;4.20;;;;;;;18.37;77.93;100178.28;5052385;28;20044;-84
2021/08/06 07:52:47;;;;;;;12.07;3.90;;;;;;;18.33;78.25;100176.63;5050646;28;20104;-84
2021/08/06 07:55:16;;;;;;;10.30;4.20;;;;;;;18.52;78.19;100183.19;5052937;28;20037;-88
2021/08/06 07:57:42;;;;;;;11.98;4.13;;;;;;;18.87;77.66;100181.34;5050637;28;20033;-82
2021/08/06 08:00:08;;;;;;;5.90;3.72;;;;;;;19.04;77.64;100185.34;5052714;28;20048;-83
2021/08/06 08:02:36;;;;;;;9.10;3.80;;;;;;;19.12;75.25;100178.00;5052272;28;20025;-78
2021/08/06 08:05:02;;;;;;;9.00;3.85;;;;;;;19.29;74.86;100182.84;5055458;28;20079;-80
2021/08/06 08:07:29;;;;;;;6.57;3.28;;;;;;;19.39;75.30;100180.75;5057162;28;20037;-81
2021/08/06 08:09:55;;;;;;;5.43;2.75;;;;;;;19.29;73.42;100174.84;5055809;28;20035;-80
2021/08/06 08:12:20;;;;;;;8.52;3.88;;;;;;;19.12;75.48;100186.00;5052456;28;20048;-79
2021/08/06 08:14:48;;;;;;;7.82;3.20;;;;;;;19.09;74.51;100178.09;5054767;28;20546;-82
2021/08/06 08:17:34;;;;;;;5.95;3.33;;;;;;;19.10;74.35;100185.19;5056344;28;20572;-83
2021/08/06 08:19:59;;;;;;;10.40;3.58;;;;;;;19.15;75.86;100188.59;5052408;28;20029;-80
2021/08/06 08:22:25;;;;;;;8.63;3.10;;;;;;;18.96;75.23;100179.38;5048770;28;20036;-79
2021/08/06 08:24:50;;;;;;;10.63;3.50;;;;;;;19.06;75.29;100188.84;5056704;28;20025;-84
2021/08/06 08:27:17;;;;;;;5.15;3.55;;;;;;;19.45;75.06;100190.34;5055577;28;20036;-77
2021/08/06 08:30:03;;;;;;;7.75;3.60;;;;;;;19.37;73.90;100175.47;5057112;28;20025;-81
2021/08/06 08:32:29;;;;;;;8.80;3.67;;;;;;;19.63;74.67;100180.91;5056122;28;20041;-81
2021/08/06 08:34:54;;;;;;;7.38;3.70;;;;;;;20.15;72.57;100168.56;5056967;28;20025;-81
2021/08/06 08:37:36;;;;;;;11.75;4.28;;;;;;;20.77;69.27;100169.09;5056078;28;20501;-85
2021/08/06 08:40:23;;;;;;;6.72;3.20;;;;;;;20.91;67.19;100159.69;5054981;28;20105;-83
2021/08/06 08:42:49;;;;;;;6.93;3.00;;;;;;;20.91;67.15;100155.22;5055213;28;20055;-81
2021/08/06 08:45:31;;;;;;;7.97;2.85;;;;;;;21.11;66.11;100161.63;5055514;28;20021;-79
2021/08/06 08:48:19;;;;;;;11.48;2.70;;;;;;;21.50;65.07;100161.88;5052222;28;20036;-77
2021/08/06 08:51:05;;;;;;;4.93;2.25;;;;;;;21.94;62.98;100147.63;5045321;28;20055;-79
2021/08/06 08:53:35;;;;;;;6.68;2.20;;;;;;;21.99;62.56;100172.41;5049498;28;20035;-80
2021/08/06 08:56:22;;;;;;;5.28;2.15;;;;;;;21.78;62.86;100168.81;5066950;28;20037;-80
2021/08/06 08:58:47;;;;;;;5.57;2.22;;;;;;;21.89;64.00;100176.41;5056666;28;20113;-81
2021/08/06 09:01:33;;;;;;;7.10;2.30;;;;;;;21.43;65.99;100170.19;5056137;28;20029;-80
2021/08/06 09:04:19;;;;;;;7.55;2.35;;;;;;;20.87;67.11;100174.97;5055545;28;20032;-82
2021/08/06 09:06:45;;;;;;;5.75;2.33;;;;;;;20.66;67.26;100181.94;5056429;28;20029;-78
2021/08/06 09:09:36;;;;;;;4.90;2.13;;;;;;;20.49;68.73;100191.44;5053750;28;20083;-78
2021/08/06 09:12:26;;;;;;;7.90;2.92;;;;;;;20.44;67.34;100198.72;5055519;28;20455;-80
2021/08/06 09:15:11;;;;;;;7.05;2.58;;;;;;;20.41;66.89;100187.28;5053451;28;20490;-79
2021/08/06 09:17:37;;;;;;;6.07;1.98;;;;;;;20.53;68.11;100202.91;5055954;28;20100;-82
2021/08/06 09:20:08;;;;;;;5.95;1.30;;;;;;;20.97;65.31;100197.78;5055852;28;20040;-79
2021/08/06 09:22:33;;;;;;;5.93;1.42;;;;;;;21.25;63.75;100190.53;5055865;28;20493;-84
2021/08/06 09:25:38;;;;;;;4.55;1.38;;;;;;;21.56;63.13;100207.16;5055169;28;20021;-82
2021/08/06 09:28:04;;;;;;;4.20;1.52;;;;;;;22.03;62.55;100197.25;5055594;28;20090;-85
2021/08/06 09:30:36;;;;;;;4.65;1.70;;;;;;;22.30;61.12;100181.84;5055926;28;20479;-82
2021/08/06 09:33:02;;;;;;;2.85;1.70;;;;;;;22.32;60.51;100190.66;5056424;28;20028;-80
2021/08/06 09:35:35;;;;;;;4.18;2.30;;;;;;;22.67;60.87;100195.50;5059186;28;20102;-78
2021/08/06 09:38:18;;;;;;;4.55;2.15;;;;;;;23.50;56.75;100189.00;5054650;28;20033;-82
2021/08/06 09:40:43;;;;;;;4.82;1.60;;;;;;;23.61;57.32;100187.63;5088367;28;20076;-83
2021/08/06 09:43:35;;;;;;;2.60;1.70;;;;;;;22.89;59.17;100203.44;5055362;28;20032;-82
2021/08/06 09:46:00;;;;;;;6.00;1.52;;;;;;;22.34;60.79;100212.03;5055905;28;20067;-86
2021/08/06 09:48:30;;;;;;;7.15;1.85;;;;;;;21.78;63.30;100206.28;5055376;28;20025;-81
2021/08/06 09:51:27;;;;;;;4.85;1.80;;;;;;;20.96;66.58;100220.09;5047121;28;20534;-81
2021/08/06 09:53:52;;;;;;;2.25;1.33;;;;;;;20.21;68.80;100227.13;5052745;28;20048;-82
2021/08/06 09:56:18;;;;;;;2.78;1.20;;;;;;;20.24;70.08;100233.28;5053436;28;20025;-85
2021/08/06 09:59:16;;;;;;;7.82;1.63;;;;;;;20.68;68.18;100226.44;5055443;28;20388;-82
2021/08/06 10:01:42;;;;;;;2.80;1.02;;;;;;;21.06;66.95;100223.31;5048919;28;20045;-81
2021/08/06 10:04:34;;;;;;;4.13;1.40;;;;;;;21.14;67.85;100221.22;5054619;28;20020;-80
2021/08/06 10:07:01;;;;;;;4.22;1.20;;;;;;;21.09;67.17;100217.84;5055283;28;20543;-81
2021/08/06 10:09:31;;;;;;;3.80;1.55;;;;;;;20.73;67.27;100220.94;5054767;28;20024;-83
2021/08/06 10:11:56;;;;;;;6.15;1.50;;;;;;;20.62;67.80;100223.06;5054764;28;20033;-85
2021/08/06 10:14:44;;;;;;;6.25;1.58;;;;;;;20.52;69.17;100217.19;5058831;28;20040;-82
2021/08/06 10:17:29;;;;;;;6.55;2.17;;;;;;;20.52;69.40;100212.72;5054760;28;20025;-82
2021/08/06 10:20:16;;;;;;;3.67;1.52;;;;;;;20.35;69.31;100215.97;5055281;28;20032;-79
2021/08/06 10:22:42;;;;;;;3.70;1.95;;;;;;;19.98;72.59;100222.53;5053422;28;20563;-79
2021/08/06 10:25:10;;;;;;;7.97;1.85;;;;;;;19.44;74.91;100232.19;5054046;28;20056;-80
2021/08/06 10:27:56;;;;;;;3.40;2.10;;;;;;;19.53;76.74;100226.59;5054269;28;20021;-85
2021/08/06 10:30:45;;;;;;;5.88;2.05;;;;;;;19.59;75.64;100213.94;5039426;28;21471;-84
2021/08/06 10:33:12;;;;;;;5.50;2.72;;;;;;;19.65;76.96;100216.44;5055214;28;20032;-82
2021/08/06 10:36:06;;;;;;;4.10;2.08;;;;;;;19.64;75.93;100212.00;5054314;28;20089;-82
2021/08/06 10:39:01;;;;;;;2.88;1.85;;;;;;;19.61;76.51;100228.13;5054076;28;20109;-80
2021/08/06 10:41:49;;;;;;;1.83;1.60;;;;;;;19.51;76.20;100243.56;5044074;28;20091;-81
2021/08/06 10:44:15;;;;;;;2.38;1.40;;;;;;;19.76;76.19;100227.63;5045851;28;20029;-79
2021/08/06 10:47:39;;;;;;;1.70;1.00;;;;;;;20.10;72.74;100217.72;5054441;28;20075;-83
2021/08/06 10:50:33;;;;;;;4.10;1.00;;;;;;;20.20;72.19;100221.84;5054393;28;20513;-81
2021/08/06 10:53:38;;;;;;;4.40;1.40;;;;;;;20.21;72.53;100223.56;5045638;28;20557;-86
2021/08/06 10:56:15;;;;;;;1.33;1.13;;;;;;;20.21;72.06;100224.47;5034659;28;20128;-81
2021/08/06 10:58:47;;;;;;;2.50;1.50;;;;;;;20.47;71.09;100224.47;5033850;28;20029;-81
2021/08/06 11:01:33;;;;;;;3.08;1.20;;;;;;;20.37;71.38;100229.28;5042734;28;20033;-81
2021/08/06 11:04:19;;;;;;;4.05;1.23;;;;;;;20.46;73.89;100236.13;5054371;28;20029;-84
2021/08/06 11:07:07;;;;;;;3.17;1.15;;;;;;;20.57;70.45;100225.06;5034596;28;20053;-84
2021/08/06 11:09:36;;;;;;;2.10;1.67;;;;;;;20.51;69.01;100216.31;5037075;28;20491;-88
2021/08/06 11:12:29;;;;;;;2.45;1.60;;;;;;;20.96;67.99;100216.53;5047403;28;20037;-81
2021/08/06 11:14:54;;;;;;;4.88;2.45;;;;;;;21.05;68.01;100202.84;5054990;28;20029;-80
2021/08/06 11:17:59;;;;;;;5.40;3.95;;;;;;;21.40;67.71;100211.31;5054750;28;20067;-83
2021/08/06 11:20:26;;;;;;;3.60;2.10;;;;;;;21.02;67.84;100210.97;5053142;28;20033;-81
2021/08/06 11:22:51;;;;;;;6.80;2.38;;;;;;;20.23;73.98;100244.91;5054766;28;20036;-81
2021/08/06 11:25:21;;;;;;;3.30;2.70;;;;;;;19.36;78.67;100244.88;5046719;28;20028;-81
2021/08/06 11:27:55;;;;;;;7.07;2.53;;;;;;;18.73;84.32;100255.47;5051370;28;20013;-83
2021/08/06 11:30:44;;;;;;;5.00;2.78;;;;;;;19.93;83.39;100232.50;5054673;28;20067;-85
2021/08/06 11:33:10;;;;;;;3.75;2.00;;;;;;;20.23;80.35;100231.56;5053312;28;20037;-83
2021/08/06 11:35:38;;;;;;;4.13;1.80;;;;;;;20.05;78.13;100228.56;5052891;28;20055;-80
2021/08/06 11:38:07;;;;;;;2.38;1.90;;;;;;;20.17;78.00;100228.16;5055105;28;20090;-81
2021/08/06 11:40:57;;;;;;;2.47;1.77;;;;;;;20.96;77.50;100227.25;5056068;28;20491;-82
2021/08/06 11:43:28;;;;;;;3.22;1.60;;;;;;;21.63;75.02;100225.66;5056655;28;20040;-82
2021/08/06 11:46:08;;;;;;;2.90;1.52;;;;;;;21.49;73.68;100221.69;5038110;28;20041;-81
2021/08/06 11:49:12;;;;;;;1.90;1.52;;;;;;;20.73;73.76;100215.59;5043133;28;20041;-83
2021/08/06 11:51:46;;;;;;;3.67;1.80;;;;;;;20.39;73.68;100230.97;5057388;28;20029;-81
2021/08/06 11:54:12;;;;;;;4.85;2.33;;;;;;;20.58;75.85;100221.44;5060169;28;20032;-81
2021/08/06 11:56:58;;;;;;;4.78;1.90;;;;;;;20.84;74.14;100213.41;5064032;28;20024;-78
2021/08/06 11:59:24;;;;;;;4.38;1.90;;;;;;;20.74;74.58;100214.69;5038234;28;20446;-77
2021/08/06 12:02:20;;;;;;;5.43;2.05;;;;;;;21.26;72.34;100213.69;5057895;28;20025;-79
2021/08/06 12:05:21;;;;;;;5.00;1.77;;;;;;;21.20;72.64;100215.66;5057827;28;20100;-84
2021/08/06 12:07:46;;;;;;;5.45;2.25;;;;;;;21.32;70.08;100208.94;5057221;28;20054;-82
2021/08/06 12:10:16;;;;;;;5.82;1.60;;;;;;;21.02;68.42;100210.97;5057289;28;20044;-78